createdAt,value
2019-06-07T00:01:58.435Z,18.16
2019-06-07T00:04:29.049Z,18.19
2019-06-07T00:06:59.363Z,18.15
2019-06-07T00:09:29.577Z,18.11
2019-06-07T00:12:00.220Z,18.02
2019-06-07T00:14:30.579Z,18.00
2019-06-07T00:17:00.844Z,17.92
2019-06-07T00:19:31.121Z,17.86
2019-06-07T00:22:30.064Z,17.72
2019-06-07T00:24:33.278Z,17.63
2019-06-07T00:27:03.506Z,17.57
2019-06-07T00:29:33.831Z,17.56
2019-06-07T00:32:04.175Z,17.45
2019-06-07T00:34:35.696Z,17.39
2019-06-07T00:37:07.101Z,17.34
2019-06-07T00:39:37.551Z,17.37
2019-06-07T00:42:07.897Z,17.29
2019-06-07T00:44:38.109Z,17.22
2019-06-07T00:47:08.347Z,17.22
2019-06-07T00:49:41.355Z,17.22
2019-06-07T00:52:18.211Z,17.15
2019-06-07T00:54:43.244Z,17.07
2019-06-07T00:57:16.637Z,17.05
2019-06-07T00:59:45.590Z,17.00
2019-06-07T01:02:16.694Z,16.98
2019-06-07T01:04:48.156Z,16.93
2019-06-07T01:07:20.048Z,16.90
2019-06-07T01:09:51.010Z,16.88
2019-06-07T01:12:22.102Z,16.85
2019-06-07T01:14:55.517Z,16.83
2019-06-07T01:17:41.461Z,16.76
2019-06-07T01:19:59.918Z,16.70
2019-06-07T01:22:30.211Z,16.67
2019-06-07T01:25:00.453Z,16.69
2019-06-07T01:27:30.733Z,16.62
2019-06-07T01:30:01.643Z,16.64
2019-06-07T01:32:34.342Z,16.57
2019-06-07T01:35:08.712Z,16.53
2019-06-07T01:37:39.354Z,16.48
2019-06-07T01:40:13.307Z,16.44
2019-06-07T01:42:44.211Z,16.43
2019-06-07T01:45:17.918Z,16.43
2019-06-07T01:47:47.750Z,16.40
2019-06-07T01:50:23.336Z,16.34
2019-06-07T01:52:53.455Z,16.29
2019-06-07T01:55:31.699Z,16.21
2019-06-07T01:57:59.064Z,16.13
2019-06-07T02:00:32.692Z,16.08
2019-06-07T02:03:02.756Z,16.01
2019-06-07T02:05:39.110Z,15.94
2019-06-07T02:08:09.337Z,15.89
2019-06-07T02:10:39.642Z,15.85
2019-06-07T02:13:09.965Z,15.83
2019-06-07T02:15:40.464Z,15.84
2019-06-07T02:18:10.652Z,15.83
2019-06-07T02:20:40.897Z,15.83
2019-06-07T02:23:11.118Z,15.83
2019-06-07T02:25:48.594Z,15.77
2019-06-07T02:28:31.932Z,15.78
2019-06-07T02:30:58.862Z,15.81
2019-06-07T02:33:18.456Z,15.80
2019-06-07T02:35:48.772Z,15.80
2019-06-07T02:38:23.099Z,15.76
2019-06-07T02:40:55.052Z,15.78
2019-06-07T02:43:28.252Z,15.81
2019-06-07T02:46:21.272Z,15.79
2019-06-07T02:48:36.189Z,15.87
2019-06-07T02:51:02.261Z,15.99
2019-06-07T02:53:39.541Z,15.98
2019-06-07T02:56:37.856Z,16.06
2019-06-07T02:58:41.573Z,16.12
2019-06-07T03:01:10.137Z,16.20
2019-06-07T03:03:42.004Z,16.19
2019-06-07T03:06:14.740Z,16.18
2019-06-07T03:08:47.104Z,16.25
2019-06-07T03:11:18.863Z,16.28
2019-06-07T03:13:50.885Z,16.41
2019-06-07T03:16:26.258Z,16.44
2019-06-07T03:19:02.591Z,16.49
2019-06-07T03:21:36.420Z,16.51
2019-06-07T03:24:06.964Z,16.56
2019-06-07T03:27:31.444Z,16.57
2019-06-07T03:29:09.698Z,16.55
2019-06-07T03:31:46.680Z,16.57
2019-06-07T03:34:11.959Z,16.61
2019-06-07T03:36:54.545Z,16.74
2019-06-07T03:39:28.017Z,16.80
2019-06-07T03:42:06.408Z,16.96
2019-06-07T03:44:33.954Z,17.19
2019-06-07T03:47:04.453Z,17.66
2019-06-07T03:49:48.644Z,17.66
2019-06-07T03:52:20.862Z,17.78
2019-06-07T03:54:54.676Z,17.78
2019-06-07T03:57:25.463Z,17.88
2019-06-07T03:59:55.759Z,17.97
2019-06-07T04:02:30.357Z,18.05
2019-06-07T04:05:02.853Z,18.09
2019-06-07T04:07:36.067Z,18.11
2019-06-07T04:10:09.124Z,18.09
2019-06-07T04:12:43.396Z,18.09
2019-06-07T04:15:12.282Z,18.09
2019-06-07T04:18:00.751Z,18.14
2019-06-07T04:20:14.774Z,18.31
2019-06-07T04:22:46.933Z,18.28
2019-06-07T04:25:17.747Z,18.29
2019-06-07T04:27:48.002Z,18.41
2019-06-07T04:30:43.890Z,18.46
2019-06-07T04:33:14.957Z,18.55
2019-06-07T04:35:45.990Z,18.53
2019-06-07T04:38:17.836Z,18.57
2019-06-07T04:40:49.293Z,18.66
2019-06-07T04:43:19.708Z,18.78
2019-06-07T04:45:51.672Z,18.80
2019-06-07T04:48:23.346Z,18.87
2019-06-07T04:50:55.840Z,19.01
2019-06-07T04:53:26.102Z,19.06
2019-06-07T04:55:56.798Z,19.11
2019-06-07T04:58:27.022Z,19.23
2019-06-07T05:01:03.211Z,19.31
2019-06-07T05:03:31.388Z,19.41
2019-06-07T05:06:01.867Z,19.53
2019-06-07T05:08:35.130Z,19.62
2019-06-07T05:11:04.173Z,19.79
2019-06-07T05:13:37.819Z,19.84
2019-06-07T05:16:06.912Z,19.96
2019-06-07T05:18:40.225Z,20.00
2019-06-07T05:21:09.116Z,20.05
2019-06-07T05:24:05.732Z,20.15
2019-06-07T05:26:11.293Z,20.22
2019-06-07T05:28:43.007Z,20.28
2019-06-07T05:31:13.970Z,20.41
2019-06-07T05:33:44.339Z,20.50
2019-06-07T05:36:14.566Z,20.58
2019-06-07T05:38:45.189Z,20.75
2019-06-07T05:41:16.993Z,20.76
2019-06-07T05:44:01.119Z,20.82
2019-06-07T05:46:20.885Z,21.17
2019-06-07T05:48:51.875Z,21.56
2019-06-07T05:51:22.286Z,21.68
2019-06-07T05:53:53.106Z,21.63
2019-06-07T05:56:23.822Z,21.67
2019-06-07T05:58:56.094Z,21.75
2019-06-07T06:01:55.739Z,21.86
2019-06-07T06:04:00.055Z,21.96
2019-06-07T06:06:30.656Z,22.11
2019-06-07T06:09:13.394Z,22.22
2019-06-07T06:11:45.885Z,22.27
2019-06-07T06:14:08.360Z,22.32
2019-06-07T06:16:39.762Z,22.37
2019-06-07T06:19:10.707Z,22.37
2019-06-07T06:21:44.844Z,22.44
2019-06-07T06:24:13.748Z,22.52
2019-06-07T06:26:51.337Z,22.61
2019-06-07T06:29:16.007Z,22.62
2019-06-07T06:32:35.814Z,22.77
2019-06-07T06:34:19.966Z,23.23
2019-06-07T06:36:52.401Z,23.88
2019-06-07T06:39:22.701Z,24.07
2019-06-07T06:42:00.843Z,24.30
2019-06-07T06:44:27.283Z,24.43
2019-06-07T06:46:58.676Z,24.45
2019-06-07T06:49:29.262Z,24.48
2019-06-07T06:51:59.845Z,24.61
2019-06-07T06:54:40.776Z,24.82
2019-06-07T06:57:19.045Z,25.66
2019-06-07T06:59:39.312Z,26.29
2019-06-07T07:02:09.011Z,27.79
2019-06-07T07:04:41.904Z,30.44
2019-06-07T07:07:12.428Z,33.71
2019-06-07T07:09:47.615Z,36.67
2019-06-07T07:12:16.183Z,38.69
2019-06-07T07:14:49.258Z,40.36
2019-06-07T07:17:20.279Z,41.78
2019-06-07T07:19:52.983Z,43.20
2019-06-07T07:22:23.988Z,44.52
2019-06-07T07:24:54.967Z,45.64
2019-06-07T07:27:25.503Z,46.64
2019-06-07T07:30:31.269Z,47.63
2019-06-07T07:32:28.394Z,48.13
2019-06-07T07:35:00.755Z,48.30
2019-06-07T07:37:32.206Z,48.10
2019-06-07T07:40:53.548Z,48.57
2019-06-07T07:42:34.776Z,48.59
2019-06-07T07:45:06.626Z,47.90
2019-06-07T07:47:57.654Z,48.35
2019-06-07T07:50:10.227Z,48.93
2019-06-07T07:52:40.931Z,49.46
2019-06-07T07:55:11.834Z,49.92
2019-06-07T07:57:42.398Z,50.38
2019-06-07T08:00:49.440Z,50.75
2019-06-07T08:02:48.901Z,50.45
2019-06-07T08:05:28.819Z,50.53
2019-06-07T08:07:56.490Z,50.66
2019-06-07T08:10:24.449Z,50.54
2019-06-07T08:13:14.451Z,51.17
2019-06-07T08:15:27.017Z,51.05
2019-06-07T08:18:03.187Z,51.32
2019-06-07T08:20:29.699Z,50.05
2019-06-07T08:23:01.385Z,49.96
2019-06-07T08:25:32.450Z,50.24
2019-06-07T08:28:03.096Z,50.13
2019-06-07T08:30:55.059Z,50.15
2019-06-07T08:33:25.495Z,50.14
2019-06-07T08:36:06.154Z,49.12
2019-06-07T08:38:29.859Z,48.59
2019-06-07T08:40:42.171Z,48.20
2019-06-07T08:43:20.280Z,49.21
2019-06-07T08:45:44.921Z,50.06
2019-06-07T08:48:27.593Z,49.96
2019-06-07T08:50:47.071Z,50.14
2019-06-07T08:53:17.421Z,49.85
2019-06-07T08:55:48.137Z,49.82
2019-06-07T08:58:18.551Z,49.93
2019-06-07T09:00:49.384Z,50.10
2019-06-07T09:03:21.350Z,49.59
2019-06-07T09:05:54.200Z,49.22
2019-06-07T09:08:30.334Z,48.94
2019-06-07T09:10:58.917Z,49.01
2019-06-07T09:13:28.914Z,49.33
2019-06-07T09:16:04.929Z,49.24
2019-06-07T09:18:42.004Z,49.03
2019-06-07T09:21:07.695Z,48.48
2019-06-07T09:23:35.818Z,48.27
2019-06-07T09:26:15.975Z,48.36
2019-06-07T09:28:38.049Z,48.03
2019-06-07T09:31:10.389Z,47.88
2019-06-07T09:33:41.003Z,46.69
2019-06-07T09:36:13.156Z,46.20
2019-06-07T09:38:44.635Z,46.21
2019-06-07T09:41:15.300Z,45.21
2019-06-07T09:44:01.764Z,44.81
2019-06-07T09:46:18.738Z,45.17
2019-06-07T09:51:21.103Z,45.28
2019-06-07T09:53:52.037Z,45.20
2019-06-07T09:56:22.354Z,45.42
2019-06-07T09:58:55.343Z,45.63
2019-06-07T10:01:25.701Z,45.38
2019-06-07T10:04:02.317Z,45.17
2019-06-07T10:06:29.623Z,44.71
2019-06-07T10:10:04.668Z,42.77
2019-06-07T10:11:34.329Z,40.27
2019-06-07T10:14:06.838Z,38.35
2019-06-07T10:16:46.925Z,37.18
2019-06-07T10:19:10.993Z,36.57
2019-06-07T10:21:41.631Z,35.69
2019-06-07T10:24:11.971Z,34.49
2019-06-07T10:26:42.553Z,34.04
2019-06-07T10:29:12.869Z,33.94
2019-06-07T10:31:43.443Z,33.86
2019-06-07T10:34:13.784Z,33.73
2019-06-07T10:36:44.214Z,33.33
2019-06-07T10:39:14.479Z,32.82
2019-06-07T10:41:44.718Z,32.67
2019-06-07T10:44:15.324Z,32.60
2019-06-07T10:46:45.983Z,32.52
2019-06-07T10:49:16.649Z,32.41
2019-06-07T10:51:48.637Z,32.37
2019-06-07T10:54:26.697Z,32.11
2019-06-07T10:56:51.809Z,32.19
2019-06-07T10:59:22.164Z,31.87
2019-06-07T11:01:54.220Z,31.80
2019-06-07T11:04:24.938Z,31.62
2019-06-07T11:06:55.246Z,31.51
2019-06-07T11:09:25.856Z,31.22
2019-06-07T11:11:56.491Z,30.90
2019-06-07T11:14:27.894Z,30.60
2019-06-07T11:16:58.118Z,30.32
2019-06-07T11:19:28.742Z,30.01
2019-06-07T11:21:59.387Z,29.73
2019-06-07T11:24:29.736Z,29.56
2019-06-07T11:26:59.955Z,29.48
2019-06-07T11:29:30.555Z,29.44
2019-06-07T11:32:00.816Z,29.82
2019-06-07T11:34:31.044Z,30.21
2019-06-07T11:37:01.491Z,30.39
2019-06-07T11:39:32.025Z,30.53
2019-06-07T11:42:02.342Z,30.53
2019-06-07T11:44:32.577Z,30.42
2019-06-07T11:47:04.343Z,30.13
2019-06-07T11:49:35.109Z,29.84
2019-06-07T11:52:05.670Z,29.54
2019-06-07T11:54:36.511Z,29.26
2019-06-07T11:57:07.169Z,29.09
2019-06-07T11:59:37.675Z,28.93
2019-06-07T12:02:09.135Z,28.87
2019-06-07T12:04:39.964Z,28.74
2019-06-07T12:07:12.082Z,28.79
2019-06-07T12:09:55.520Z,29.21
2019-06-07T12:12:14.563Z,29.53
2019-06-07T12:14:46.516Z,29.52
2019-06-07T12:17:17.668Z,29.36
2019-06-07T12:19:48.362Z,29.22
2019-06-07T12:22:20.043Z,29.11
2019-06-07T12:24:51.047Z,28.97
2019-06-07T12:27:21.887Z,28.84
2019-06-07T12:29:52.172Z,28.79
2019-06-07T12:32:22.410Z,28.79
2019-06-07T12:34:53.033Z,28.81
2019-06-07T12:37:39.207Z,28.93
2019-06-07T12:39:55.632Z,28.86
2019-06-07T12:42:25.929Z,28.84
2019-06-07T12:44:56.151Z,28.86
2019-06-07T12:47:26.413Z,28.78
2019-06-07T12:49:57.014Z,28.75
2019-06-07T12:52:27.713Z,28.65
2019-06-07T12:54:58.166Z,28.91
2019-06-07T12:57:28.442Z,29.19
2019-06-07T12:59:58.713Z,29.53
2019-06-07T13:02:29.332Z,29.77
2019-06-07T13:05:04.322Z,29.98
2019-06-07T13:07:31.907Z,30.16
2019-06-07T13:10:02.497Z,30.20
2019-06-07T13:12:32.866Z,29.99
2019-06-07T13:15:04.411Z,29.72
2019-06-07T13:17:35.118Z,29.51
2019-06-07T13:20:09.299Z,29.43
2019-06-07T13:22:39.537Z,29.75
2019-06-07T13:25:10.352Z,30.09
2019-06-07T13:27:40.892Z,30.17
2019-06-07T13:30:13.447Z,30.26
2019-06-07T13:32:44.102Z,30.40
2019-06-07T13:35:18.114Z,30.47
2019-06-07T13:37:47.928Z,30.46
2019-06-07T13:40:19.700Z,30.50
2019-06-07T13:42:51.455Z,30.51
2019-06-07T13:45:22.391Z,30.62
2019-06-07T13:47:52.807Z,30.73
2019-06-07T13:50:24.260Z,30.72
2019-06-07T13:52:54.498Z,30.41
2019-06-07T13:55:25.878Z,30.16
2019-06-07T13:57:56.602Z,30.24
2019-06-07T14:00:26.899Z,30.39
2019-06-07T14:02:57.171Z,30.48
2019-06-07T14:05:29.045Z,30.36
2019-06-07T14:07:59.943Z,30.37
2019-06-07T14:10:30.340Z,30.12
2019-06-07T14:13:00.580Z,29.88
2019-06-07T14:15:33.986Z,29.91
2019-06-07T14:18:02.841Z,29.97
2019-06-07T14:20:34.745Z,29.86
2019-06-07T14:23:05.657Z,29.75
2019-06-07T14:25:36.179Z,29.62
2019-06-07T14:28:11.412Z,29.41
2019-06-07T14:30:39.488Z,29.29
2019-06-07T14:33:10.239Z,29.25
2019-06-07T14:35:40.571Z,29.02
2019-06-07T14:38:12.133Z,28.86
2019-06-07T14:40:42.800Z,28.71
2019-06-07T14:43:13.233Z,28.65
2019-06-07T14:45:44.092Z,28.56
2019-06-07T14:48:15.882Z,28.49
2019-06-07T14:50:46.393Z,28.49
2019-06-07T14:53:17.221Z,28.53
2019-06-07T14:55:48.278Z,28.46
2019-06-07T14:58:18.989Z,28.30
2019-06-07T15:00:49.390Z,28.24
2019-06-07T15:03:21.983Z,28.18
2019-06-07T15:05:52.276Z,28.44
2019-06-07T15:08:23.074Z,28.81
2019-06-07T15:10:53.724Z,29.08
2019-06-07T15:13:24.034Z,29.29
2019-06-07T15:15:54.345Z,29.44
2019-06-07T15:18:25.022Z,29.40
2019-06-07T15:20:55.697Z,29.49
2019-06-07T15:23:27.060Z,29.53
2019-06-07T15:25:57.579Z,29.43
2019-06-07T15:28:29.997Z,29.30
2019-06-07T15:31:00.261Z,29.20
2019-06-07T15:33:31.846Z,29.09
2019-06-07T15:36:03.344Z,29.03
2019-06-07T15:38:34.790Z,28.97
2019-06-07T15:41:05.542Z,28.76
2019-06-07T15:43:37.426Z,28.49
2019-06-07T15:46:08.146Z,28.15
2019-06-07T15:48:40.072Z,27.87
2019-06-07T15:51:10.981Z,27.68
2019-06-07T15:53:44.587Z,27.54
2019-06-07T15:56:14.568Z,27.39
2019-06-07T15:58:44.920Z,27.26
2019-06-07T16:01:15.883Z,27.17
2019-06-07T16:03:46.405Z,27.06
2019-06-07T16:06:19.473Z,26.99
2019-06-07T16:08:49.998Z,26.92
2019-06-07T16:11:20.687Z,26.98
2019-06-07T16:13:51.346Z,27.06
2019-06-07T16:16:22.107Z,27.35
2019-06-07T16:18:52.770Z,27.60
2019-06-07T16:21:23.098Z,27.74
2019-06-07T16:23:53.722Z,27.93
2019-06-07T16:26:25.629Z,28.05
2019-06-07T16:28:57.340Z,28.07
2019-06-07T16:31:28.527Z,28.02
2019-06-07T16:33:58.902Z,27.89
2019-06-07T16:36:29.587Z,27.78
2019-06-07T16:39:00.259Z,27.66
2019-06-07T16:41:31.104Z,27.50
2019-06-07T16:44:01.537Z,27.35
2019-06-07T16:46:32.487Z,27.22
2019-06-07T16:49:02.790Z,27.13
2019-06-07T16:51:33.153Z,27.03
2019-06-07T16:54:03.399Z,26.92
2019-06-07T16:56:33.666Z,26.81
2019-06-07T16:59:04.330Z,26.69
2019-06-07T17:01:34.732Z,26.62
2019-06-07T17:04:05.538Z,26.56
2019-06-07T17:06:35.847Z,26.60
2019-06-07T17:09:07.987Z,26.59
2019-06-07T17:11:38.403Z,26.63
2019-06-07T17:14:08.625Z,26.65
2019-06-07T17:16:39.034Z,26.62
2019-06-07T17:19:09.352Z,26.45
2019-06-07T17:21:40.944Z,26.30
2019-06-07T17:24:11.672Z,26.15
2019-06-07T17:26:43.360Z,26.01
2019-06-07T17:29:15.388Z,25.93
2019-06-07T17:31:46.430Z,25.90
2019-06-07T17:34:17.396Z,25.80
2019-06-07T17:36:48.759Z,25.79
2019-06-07T17:39:19.444Z,25.75
2019-06-07T17:42:00.004Z,25.66
2019-06-07T17:44:21.783Z,25.56
2019-06-07T17:46:52.368Z,25.46
2019-06-07T17:49:23.050Z,25.34
2019-06-07T17:51:54.545Z,25.26
2019-06-07T17:54:24.740Z,25.11
2019-06-07T17:56:54.989Z,24.99
2019-06-07T17:59:25.224Z,24.84
2019-06-07T18:02:13.594Z,24.71
2019-06-07T18:04:27.510Z,24.57
2019-06-07T18:06:58.299Z,24.44
2019-06-07T18:09:30.149Z,24.32
2019-06-07T18:12:00.493Z,24.23
2019-06-07T18:14:31.255Z,24.13
2019-06-07T18:17:02.122Z,24.01
2019-06-07T18:19:32.487Z,23.89
2019-06-07T18:22:02.770Z,23.80
2019-06-07T18:24:33.036Z,23.71
2019-06-07T18:27:06.974Z,23.64
2019-06-07T18:29:35.900Z,23.55
2019-06-07T18:32:06.137Z,23.48
2019-06-07T18:34:37.557Z,23.40
2019-06-07T18:37:07.932Z,23.33
2019-06-07T18:39:38.665Z,23.22
2019-06-07T18:42:09.348Z,23.12
2019-06-07T18:44:39.714Z,23.03
2019-06-07T18:47:10.337Z,22.93
2019-06-07T18:49:41.092Z,22.85
2019-06-07T18:52:16.845Z,22.75
2019-06-07T18:54:48.856Z,22.66
2019-06-07T18:57:19.287Z,22.61
2019-06-07T18:59:50.169Z,22.54
2019-06-07T19:02:20.716Z,22.46
2019-06-07T19:04:52.198Z,22.33
2019-06-07T19:07:24.377Z,22.20
2019-06-07T19:09:55.114Z,22.12
2019-06-07T19:12:25.794Z,22.03
2019-06-07T19:14:57.523Z,21.91
2019-06-07T19:17:28.496Z,21.79
2019-06-07T19:19:58.882Z,21.69
2019-06-07T19:22:29.485Z,21.61
2019-06-07T19:25:00.580Z,21.53
2019-06-07T19:27:33.177Z,21.45
2019-06-07T19:30:05.723Z,21.40
2019-06-07T19:32:36.322Z,21.35
2019-06-07T19:35:08.516Z,21.28
2019-06-07T19:37:38.810Z,21.20
2019-06-07T19:40:10.764Z,21.14
2019-06-07T19:42:41.089Z,21.04
2019-06-07T19:45:31.021Z,20.96
2019-06-07T19:47:44.288Z,20.90
2019-06-07T19:50:17.098Z,20.86
2019-06-07T19:52:47.347Z,20.82
2019-06-07T19:55:17.982Z,20.79
2019-06-07T19:57:50.136Z,20.73
2019-06-07T20:00:21.844Z,20.64
2019-06-07T20:02:52.155Z,20.56
2019-06-07T20:05:22.782Z,20.46
2019-06-07T20:07:54.455Z,20.42
2019-06-07T20:10:25.176Z,20.37
2019-06-07T20:12:56.580Z,20.34
2019-06-07T20:15:29.427Z,20.24
2019-06-07T20:17:59.507Z,20.17
2019-06-07T20:20:30.164Z,20.06
2019-06-07T20:23:01.040Z,19.99
2019-06-07T20:25:31.523Z,19.92
2019-06-07T20:28:03.373Z,19.90
2019-06-07T20:30:34.021Z,19.90
2019-06-07T20:33:05.991Z,19.87
2019-06-07T20:35:36.252Z,19.84
2019-06-07T20:38:06.538Z,19.76
2019-06-07T20:40:37.413Z,19.68
2019-06-07T20:43:08.250Z,19.66
2019-06-07T20:45:39.125Z,19.61
2019-06-07T20:48:09.785Z,19.59
2019-06-07T20:50:40.445Z,19.57
2019-06-07T20:53:10.797Z,19.57
2019-06-07T20:55:41.142Z,19.64
2019-06-07T20:58:11.440Z,19.68
2019-06-07T21:00:42.077Z,19.57
2019-06-07T21:03:13.023Z,19.47
2019-06-07T21:05:43.343Z,19.39
2019-06-07T21:08:13.596Z,19.40
2019-06-07T21:10:43.887Z,19.44
2019-06-07T21:13:14.148Z,19.40
2019-06-07T21:15:48.817Z,19.34
2019-06-07T21:18:19.855Z,19.34
2019-06-07T21:20:48.735Z,19.19
2019-06-07T21:23:19.049Z,19.10
2019-06-07T21:25:49.308Z,19.06
2019-06-07T21:28:19.724Z,18.98
2019-06-07T21:30:50.297Z,18.93
2019-06-07T21:33:20.979Z,18.86
2019-06-07T21:35:51.270Z,18.87
2019-06-07T21:38:21.576Z,18.85
2019-06-07T21:40:51.836Z,18.80
2019-06-07T21:43:22.268Z,18.74
2019-06-07T21:46:04.715Z,18.71
2019-06-07T21:48:24.994Z,18.65
2019-06-07T21:50:55.686Z,18.64
2019-06-07T21:53:26.358Z,18.63
2019-06-07T21:55:57.029Z,18.70
2019-06-07T21:58:27.350Z,18.68
2019-06-07T22:01:04.690Z,18.62
2019-06-07T22:03:38.054Z,18.55
2019-06-07T22:06:09.652Z,18.48
2019-06-07T22:08:40.635Z,18.40
2019-06-07T22:11:12.301Z,18.35
2019-06-07T22:13:43.472Z,18.28
2019-06-07T22:16:26.806Z,18.29
2019-06-07T22:18:46.055Z,18.21
2019-06-07T22:21:16.315Z,18.16
2019-06-07T22:23:47.060Z,18.13
2019-06-07T22:26:17.786Z,18.05
2019-06-07T22:28:48.206Z,18.00
2019-06-07T22:31:19.256Z,18.03
2019-06-07T22:33:49.937Z,18.07
2019-06-07T22:36:20.480Z,18.02
2019-06-07T22:38:50.814Z,17.92
2019-06-07T22:41:21.028Z,17.85
2019-06-07T22:43:51.717Z,17.77
2019-06-07T22:46:36.429Z,17.74
2019-06-07T22:48:54.533Z,17.68
2019-06-07T22:51:25.378Z,17.66
2019-06-07T22:53:56.059Z,17.70
2019-06-07T22:56:28.023Z,17.66
2019-06-07T22:58:58.673Z,17.66
2019-06-07T23:01:29.133Z,17.73
2019-06-07T23:04:01.037Z,17.78
2019-06-07T23:06:31.782Z,17.68
2019-06-07T23:09:02.516Z,17.57
2019-06-07T23:11:34.323Z,17.53
2019-06-07T23:14:04.698Z,17.48
2019-06-07T23:16:35.008Z,17.48
2019-06-07T23:19:05.330Z,17.52
2019-06-07T23:21:35.939Z,17.44
2019-06-07T23:24:06.596Z,17.34
2019-06-07T23:26:36.913Z,17.31
2019-06-07T23:29:07.238Z,17.27
2019-06-07T23:31:37.472Z,17.26
2019-06-07T23:34:07.706Z,17.25
2019-06-07T23:36:38.179Z,17.24
2019-06-07T23:39:09.366Z,17.32
2019-06-07T23:41:39.657Z,17.29
2019-06-07T23:44:11.051Z,17.25
2019-06-07T23:46:41.737Z,17.20
2019-06-07T23:49:14.041Z,17.20
2019-06-07T23:51:44.680Z,17.16
2019-06-07T23:54:15.670Z,17.15
2019-06-07T23:56:46.079Z,17.13
2019-06-07T23:59:16.312Z,17.17
